Time;durP1;ratioP1;P1;durP2;ratioP2;P2;SDS_P1;SDS_P2;PMS_P1;PMS_P2;Temp;Humidity;BMP_temperature;BMP_pressure;BME280_temperature;BME280_humidity;BME280_pressure;Samples;Min_cycle;Max_cycle;Signal;HPM_P1;HPM_P2
2024/03/14 00:04:10;;;;;;;0.65;0.50;;;9.60;99.90;;;;;;4454769;32;20077;-60
2024/03/14 00:06:36;;;;;;;1.37;0.75;;;9.50;99.90;;;;;;4452361;32;20073;-60
2024/03/14 00:09:02;;;;;;;0.57;0.57;;;9.50;99.90;;;;;;4451500;32;20092;-62
2024/03/14 00:11:29;;;;;;;0.45;0.45;;;9.60;99.90;;;;;;4444314;32;20072;-64
2024/03/14 00:13:55;;;;;;;0.50;0.50;;;9.70;99.90;;;;;;4453231;32;20072;-61
2024/03/14 00:16:21;;;;;;;0.70;0.70;;;9.70;99.90;;;;;;4455020;32;20084;-62
2024/03/14 00:18:47;;;;;;;0.40;0.40;;;9.60;99.90;;;;;;4452086;32;20409;-62
2024/03/14 00:21:14;;;;;;;0.47;0.47;;;9.80;99.90;;;;;;4453108;32;20112;-62
2024/03/14 00:23:40;;;;;;;0.50;0.50;;;9.70;99.90;;;;;;4455419;32;20080;-62
2024/03/14 00:26:08;;;;;;;0.55;0.55;;;9.70;99.90;;;;;;4450672;32;20127;-61
2024/03/14 00:28:34;;;;;;;1.35;0.60;;;9.70;99.90;;;;;;4444798;32;20073;-61
2024/03/14 00:31:00;;;;;;;0.50;0.50;;;9.60;99.90;;;;;;4452641;32;20400;-64
2024/03/14 00:33:27;;;;;;;0.52;0.50;;;9.60;99.90;;;;;;4438691;32;20073;-61
2024/03/14 00:35:52;;;;;;;0.40;0.40;;;9.50;99.90;;;;;;4452356;32;20118;-61
2024/03/14 00:38:19;;;;;;;0.40;0.40;;;9.40;99.90;;;;;;4453103;32;20083;-61
2024/03/14 00:40:45;;;;;;;0.73;0.70;;;9.30;99.90;;;;;;4443131;32;20116;-62
2024/03/14 00:43:14;;;;;;;0.43;0.43;;;9.20;99.90;;;;;;4449587;32;20476;-60
2024/03/14 00:45:40;;;;;;;0.50;0.50;;;9.30;99.90;;;;;;4451454;32;20077;-61
2024/03/14 00:48:07;;;;;;;0.55;0.55;;;9.20;99.90;;;;;;4452609;32;20072;-62
2024/03/14 00:50:35;;;;;;;0.50;0.50;;;9.10;99.90;;;;;;4451864;32;20125;-62
2024/03/14 00:53:02;;;;;;;0.62;0.62;;;8.90;99.90;;;;;;4453295;32;20781;-61
2024/03/14 00:55:29;;;;;;;1.62;0.77;;;8.90;99.90;;;;;;4453513;32;20086;-60
2024/03/14 00:57:56;;;;;;;0.55;0.55;;;8.90;99.90;;;;;;4452099;32;20078;-63
2024/03/14 01:00:23;;;;;;;2.45;0.80;;;8.90;99.90;;;;;;4446652;32;20304;-60
2024/03/14 01:02:50;;;;;;;0.40;0.40;;;9.00;99.90;;;;;;4453642;32;20142;-62
2024/03/14 01:05:17;;;;;;;1.50;0.88;;;9.00;99.90;;;;;;4453951;32;20061;-65
2024/03/14 01:07:45;;;;;;;4.65;1.08;;;9.00;99.90;;;;;;4453373;32;20122;-62
2024/03/14 01:10:12;;;;;;;1.85;0.93;;;9.00;99.90;;;;;;4455037;32;20519;-62
2024/03/14 01:12:38;;;;;;;1.95;0.93;;;9.10;99.90;;;;;;4453991;32;20115;-62
2024/03/14 01:15:06;;;;;;;1.00;0.62;;;9.10;99.90;;;;;;4454859;32;20073;-63
2024/03/14 01:17:32;;;;;;;1.27;1.17;;;9.10;99.90;;;;;;4453390;32;20589;-62
2024/03/14 01:19:57;;;;;;;1.98;0.90;;;9.00;99.90;;;;;;4454336;32;20073;-62
2024/03/14 01:22:23;;;;;;;0.80;0.80;;;8.90;99.90;;;;;;4454260;32;20157;-62
2024/03/14 01:24:48;;;;;;;0.60;0.47;;;8.70;99.90;;;;;;4454133;32;20466;-62
2024/03/14 01:27:18;;;;;;;0.55;0.55;;;8.80;99.90;;;;;;4454066;32;20076;-62
2024/03/14 01:29:45;;;;;;;0.43;0.43;;;8.80;99.90;;;;;;4453387;32;20068;-61
2024/03/14 01:32:12;;;;;;;0.90;0.82;;;8.80;99.90;;;;;;4455990;32;20061;-62
2024/03/14 01:34:37;;;;;;;2.55;1.10;;;8.80;99.90;;;;;;4449425;32;20053;-62
2024/03/14 01:37:06;;;;;;;1.60;1.30;;;8.80;99.90;;;;;;4456486;32;20156;-62
2024/03/14 01:39:35;;;;;;;1.85;0.93;;;8.90;99.90;;;;;;4456597;32;20591;-63
2024/03/14 01:42:02;;;;;;;0.55;0.55;;;8.90;99.90;;;;;;4455388;32;20056;-61
2024/03/14 01:44:51;;;;;;;0.52;0.45;;;9.00;99.90;;;;;;4455561;32;20072;-62
2024/03/14 01:47:17;;;;;;;1.40;0.68;;;9.10;99.90;;;;;;4449683;32;20135;-62
2024/03/14 01:49:42;;;;;;;0.55;0.55;;;9.20;99.90;;;;;;4456333;32;20133;-61
2024/03/14 01:52:08;;;;;;;0.62;0.62;;;9.20;99.90;;;;;;4456141;32;20143;-62
2024/03/14 01:54:34;;;;;;;0.40;0.40;;;9.20;99.90;;;;;;4455558;32;20139;-61
2024/03/14 01:57:00;;;;;;;0.57;0.55;;;9.10;99.90;;;;;;4455311;32;20096;-60
2024/03/14 01:59:27;;;;;;;0.40;0.40;;;9.10;99.90;;;;;;4456812;32;20057;-62
2024/03/14 02:01:54;;;;;;;0.65;0.65;;;9.00;99.90;;;;;;4454571;32;20145;-62
2024/03/14 02:04:27;;;;;;;1.17;0.80;;;9.10;99.90;;;;;;4455600;32;20084;-62
2024/03/14 02:07:03;;;;;;;1.12;0.82;;;9.10;99.90;;;;;;4452196;32;20515;-64
2024/03/14 02:09:29;;;;;;;0.50;0.50;;;9.20;99.90;;;;;;4455204;32;20133;-60
2024/03/14 02:11:54;;;;;;;0.75;0.70;;;9.20;99.90;;;;;;4455219;32;20076;-62
2024/03/14 02:14:20;;;;;;;0.95;0.85;;;9.20;99.90;;;;;;4453873;32;20665;-66
2024/03/14 02:16:45;;;;;;;0.85;0.85;;;9.20;99.90;;;;;;4453455;32;20120;-66
2024/03/14 02:19:11;;;;;;;0.80;0.77;;;9.20;99.90;;;;;;4451885;32;20072;-66
2024/03/14 02:21:38;;;;;;;1.25;0.90;;;9.00;99.90;;;;;;4453763;32;20065;-64
2024/03/14 02:24:04;;;;;;;0.73;0.73;;;9.00;99.90;;;;;;4452377;32;20434;-65
2024/03/14 02:26:29;;;;;;;2.37;0.98;;;9.00;99.90;;;;;;4444004;32;20107;-67
2024/03/14 02:28:55;;;;;;;0.70;0.70;;;9.10;99.90;;;;;;4450743;32;20068;-67
2024/03/14 02:31:20;;;;;;;1.37;0.93;;;9.20;99.90;;;;;;4449421;32;20133;-66
2024/03/14 02:33:46;;;;;;;1.37;0.70;;;9.20;99.90;;;;;;4453274;32;20458;-65
2024/03/14 02:36:11;;;;;;;0.73;0.73;;;9.20;99.90;;;;;;4453042;32;20076;-65
2024/03/14 02:38:37;;;;;;;0.62;0.60;;;9.10;99.90;;;;;;4450192;32;20081;-66
2024/03/14 02:41:03;;;;;;;4.20;1.27;;;9.10;99.90;;;;;;4450017;32;20085;-65
2024/03/14 02:43:28;;;;;;;1.55;1.10;;;9.10;99.90;;;;;;4448739;32;20617;-66
2024/03/14 02:45:54;;;;;;;0.50;0.50;;;9.10;99.90;;;;;;4454466;32;20064;-66
2024/03/14 02:48:19;;;;;;;1.60;0.82;;;9.20;99.90;;;;;;4454929;32;20092;-67
2024/03/14 02:50:45;;;;;;;0.60;0.60;;;9.20;99.90;;;;;;4453054;32;20069;-66
2024/03/14 02:53:13;;;;;;;0.60;0.60;;;9.30;99.90;;;;;;4452525;32;20081;-66
2024/03/14 02:55:39;;;;;;;0.40;0.40;;;9.20;99.90;;;;;;4451757;32;20528;-66
2024/03/14 02:58:06;;;;;;;0.88;0.82;;;9.20;99.90;;;;;;4449456;32;20097;-64
2024/03/14 03:00:32;;;;;;;3.75;0.77;;;9.30;99.90;;;;;;4453199;32;20469;-66
2024/03/14 03:02:58;;;;;;;0.55;0.55;;;9.30;99.90;;;;;;4454476;32;20073;-62
2024/03/14 03:05:23;;;;;;;1.77;0.88;;;9.30;99.90;;;;;;4456878;32;20063;-65
2024/03/14 03:07:49;;;;;;;0.50;0.50;;;9.40;99.90;;;;;;4454345;32;20060;-62
2024/03/14 03:10:16;;;;;;;3.22;0.90;;;9.30;99.90;;;;;;4452184;32;20085;-63
2024/03/14 03:12:42;;;;;;;0.85;0.75;;;9.30;99.90;;;;;;4455746;32;20081;-64
2024/03/14 03:15:08;;;;;;;4.15;0.93;;;9.40;99.90;;;;;;4455038;32;20509;-62
2024/03/14 03:17:33;;;;;;;0.75;0.60;;;9.40;99.90;;;;;;4455290;32;20202;-62
2024/03/14 03:20:09;;;;;;;1.75;0.82;;;9.40;99.90;;;;;;4456346;32;20547;-63
2024/03/14 03:23:06;;;;;;;0.77;0.77;;;9.60;99.90;;;;;;4453938;32;20069;-64
2024/03/14 03:25:20;;;;;;;0.37;0.37;;;9.60;99.90;;;;;;4445883;32;20549;-65
2024/03/14 03:27:46;;;;;;;1.92;1.17;;;9.70;99.90;;;;;;4449540;32;20293;-65
2024/03/14 03:30:11;;;;;;;2.33;0.60;;;9.70;99.90;;;;;;4449408;32;20069;-64
2024/03/14 03:32:37;;;;;;;1.27;1.17;;;9.70;99.90;;;;;;4453649;32;21646;-66
2024/03/14 03:35:03;;;;;;;1.30;0.90;;;9.80;99.90;;;;;;4453797;32;20061;-65
2024/03/14 03:37:29;;;;;;;4.68;1.60;;;9.80;99.90;;;;;;4451832;32;20068;-64
2024/03/14 03:39:56;;;;;;;2.53;1.50;;;9.80;99.90;;;;;;4452595;32;20077;-65
2024/03/14 03:42:22;;;;;;;0.50;0.50;;;9.70;99.90;;;;;;4452228;32;20077;-65
2024/03/14 03:44:49;;;;;;;2.78;1.00;;;9.80;99.90;;;;;;4450686;32;20064;-65
2024/03/14 03:47:16;;;;;;;1.35;1.12;;;9.70;99.90;;;;;;4451041;32;20768;-65
2024/03/14 03:49:42;;;;;;;0.88;0.88;;;9.60;99.90;;;;;;4452495;32;20666;-65
2024/03/14 03:52:08;;;;;;;2.03;1.15;;;9.50;99.90;;;;;;4454001;32;20536;-65
2024/03/14 03:54:33;;;;;;;0.88;0.88;;;9.50;99.90;;;;;;4451904;32;20084;-66
2024/03/14 03:56:59;;;;;;;0.73;0.73;;;9.60;99.90;;;;;;4442411;32;20088;-65
2024/03/14 03:59:24;;;;;;;1.02;0.82;;;9.60;99.90;;;;;;4450605;32;20610;-65
2024/03/14 04:01:54;;;;;;;0.73;0.60;;;9.60;99.90;;;;;;4453683;32;20088;-62
2024/03/14 04:04:19;;;;;;;3.03;1.30;;;9.70;99.90;;;;;;4451004;32;20674;-67
2024/03/14 04:06:47;;;;;;;0.50;0.50;;;9.80;99.90;;;;;;4452614;32;20063;-64
2024/03/14 04:09:15;;;;;;;0.55;0.55;;;9.80;99.90;;;;;;4451933;32;20061;-65
2024/03/14 04:11:42;;;;;;;2.65;0.80;;;9.80;99.90;;;;;;4451217;32;20093;-66
2024/03/14 04:14:09;;;;;;;0.52;0.52;;;9.90;99.90;;;;;;4452485;32;20432;-65
2024/03/14 04:16:35;;;;;;;1.58;1.05;;;9.90;99.90;;;;;;4453585;32;20075;-66
2024/03/14 04:19:01;;;;;;;0.80;0.80;;;9.90;99.90;;;;;;4453132;32;20068;-65
2024/03/14 04:21:27;;;;;;;1.80;1.50;;;9.90;99.90;;;;;;4452187;32;20084;-66
2024/03/14 04:23:53;;;;;;;5.15;1.42;;;9.90;99.90;;;;;;4453433;32;20148;-66
2024/03/14 04:26:18;;;;;;;2.22;1.40;;;9.90;99.90;;;;;;4452620;32;20131;-66
2024/03/14 04:28:44;;;;;;;2.75;1.12;;;9.90;99.90;;;;;;4437718;32;20065;-66
2024/03/14 04:31:10;;;;;;;0.65;0.65;;;9.90;99.90;;;;;;4449714;32;20086;-65
2024/03/14 04:33:37;;;;;;;1.17;0.88;;;9.90;99.90;;;;;;4453834;32;20068;-65
2024/03/14 04:36:03;;;;;;;4.95;0.57;;;9.90;99.90;;;;;;4452570;32;20576;-65
2024/03/14 04:38:28;;;;;;;0.52;0.52;;;9.90;99.90;;;;;;4450578;32;20072;-66
2024/03/14 04:40:56;;;;;;;3.20;1.12;;;9.90;99.90;;;;;;4452909;32;20135;-66
2024/03/14 04:43:25;;;;;;;1.70;0.90;;;10.00;99.90;;;;;;4451044;32;20080;-66
2024/03/14 04:45:52;;;;;;;1.60;0.95;;;10.00;99.90;;;;;;4451121;32;20104;-66
2024/03/14 04:48:17;;;;;;;0.95;0.80;;;9.90;99.90;;;;;;4451154;32;20110;-65
2024/03/14 04:50:46;;;;;;;0.88;0.75;;;10.00;99.90;;;;;;4453001;32;20423;-66
2024/03/14 04:53:12;;;;;;;2.67;0.98;;;9.90;99.90;;;;;;4443747;32;20173;-66
2024/03/14 04:55:39;;;;;;;0.52;0.47;;;9.90;99.90;;;;;;4438353;32;20576;-66
2024/03/14 04:58:06;;;;;;;3.10;1.08;;;9.90;99.90;;;;;;4435928;32;20060;-65
2024/03/14 05:00:31;;;;;;;0.88;0.68;;;10.00;99.90;;;;;;4436634;32;20482;-66
2024/03/14 05:02:58;;;;;;;0.73;0.73;;;10.00;99.90;;;;;;4422726;32;20104;-65
2024/03/14 05:05:24;;;;;;;0.73;0.73;;;10.00;99.90;;;;;;4437962;32;20072;-66
2024/03/14 05:07:50;;;;;;;1.85;1.50;;;10.00;99.90;;;;;;4438943;32;20132;-66
2024/03/14 05:10:19;;;;;;;0.73;0.70;;;10.10;99.90;;;;;;4439655;32;20065;-66
2024/03/14 05:12:46;;;;;;;1.67;0.80;;;10.10;99.90;;;;;;4412770;32;20061;-62
2024/03/14 05:15:12;;;;;;;0.98;0.90;;;10.10;99.90;;;;;;4428403;32;20167;-62
2024/03/14 05:17:41;;;;;;;0.60;0.50;;;10.20;99.90;;;;;;4440154;32;20112;-62
2024/03/14 05:20:12;;;;;;;0.50;0.50;;;10.20;99.90;;;;;;4445554;32;20073;-62
2024/03/14 05:22:40;;;;;;;4.10;1.00;;;10.10;99.90;;;;;;4437963;32;20081;-62
2024/03/14 05:25:06;;;;;;;2.05;0.88;;;10.10;99.90;;;;;;4416901;32;20065;-63
2024/03/14 05:27:32;;;;;;;4.22;1.00;;;10.10;99.90;;;;;;4434837;32;20069;-63
2024/03/14 05:29:58;;;;;;;0.98;0.85;;;10.10;99.90;;;;;;4440695;32;20090;-62
2024/03/14 05:32:27;;;;;;;0.90;0.90;;;10.20;99.90;;;;;;4442050;32;21167;-62
2024/03/14 05:34:54;;;;;;;3.53;0.90;;;10.30;99.90;;;;;;4442571;32;20073;-62
2024/03/14 05:37:21;;;;;;;0.50;0.50;;;10.20;99.90;;;;;;4447426;32;20528;-62
2024/03/14 05:39:47;;;;;;;0.30;0.30;;;10.20;99.90;;;;;;4442666;32;20564;-62
2024/03/14 05:42:12;;;;;;;2.47;1.42;;;10.20;99.90;;;;;;4431800;32;20089;-62
2024/03/14 05:44:40;;;;;;;0.73;0.73;;;10.20;99.90;;;;;;4438410;32;20089;-64
2024/03/14 05:47:09;;;;;;;1.25;1.00;;;10.20;99.90;;;;;;4424170;32;20049;-64
2024/03/14 05:49:36;;;;;;;7.53;1.50;;;10.30;99.90;;;;;;4438228;32;21818;-64
2024/03/14 05:52:02;;;;;;;0.75;0.70;;;10.20;99.90;;;;;;4431851;32;20065;-64
2024/03/14 05:54:28;;;;;;;7.00;1.37;;;10.30;99.90;;;;;;4442501;32;20089;-65
2024/03/14 05:56:53;;;;;;;2.45;1.00;;;10.40;99.90;;;;;;4441757;32;20053;-64
2024/03/14 05:59:19;;;;;;;0.62;0.62;;;10.30;99.90;;;;;;4441732;32;20446;-65
2024/03/14 06:01:47;;;;;;;8.43;1.40;;;10.30;99.90;;;;;;4439999;32;20073;-65
2024/03/14 06:04:13;;;;;;;3.87;1.17;;;10.40;99.90;;;;;;4445197;32;20073;-64
2024/03/14 06:06:39;;;;;;;11.35;1.20;;;10.30;99.90;;;;;;4430228;32;20509;-64
2024/03/14 06:09:04;;;;;;;1.48;1.30;;;10.30;99.90;;;;;;4442040;32;20077;-64
2024/03/14 06:11:31;;;;;;;1.87;1.35;;;10.40;99.90;;;;;;4443538;32;20077;-64
2024/03/14 06:13:58;;;;;;;1.60;1.42;;;10.40;99.90;;;;;;4429067;32;20089;-64
2024/03/14 06:16:24;;;;;;;2.50;0.82;;;10.30;99.90;;;;;;4436051;32;20065;-65
2024/03/14 06:18:50;;;;;;;2.00;1.15;;;10.40;99.90;;;;;;4428247;32;20256;-64
2024/03/14 06:21:16;;;;;;;2.45;1.23;;;10.40;99.90;;;;;;4420574;32;20770;-65
2024/03/14 06:23:41;;;;;;;0.77;0.77;;;10.40;99.90;;;;;;4426778;32;20865;-65
2024/03/14 06:26:07;;;;;;;2.62;1.10;;;10.50;99.90;;;;;;4401950;32;20813;-64
2024/03/14 06:28:33;;;;;;;2.45;1.25;;;10.50;99.90;;;;;;4389563;32;20122;-65
2024/03/14 06:30:59;;;;;;;2.00;1.15;;;10.50;99.90;;;;;;4419637;32;20136;-65
2024/03/14 06:33:27;;;;;;;4.28;1.00;;;10.60;99.90;;;;;;4412671;32;20097;-65
2024/03/14 06:35:55;;;;;;;5.43;1.17;;;10.60;99.90;;;;;;4422754;32;20069;-65
2024/03/14 06:38:24;;;;;;;5.00;0.93;;;10.60;99.90;;;;;;4417338;32;21588;-66
2024/03/14 06:40:52;;;;;;;2.22;1.33;;;10.60;99.90;;;;;;4410212;32;20872;-65
2024/03/14 06:43:18;;;;;;;1.12;0.93;;;10.50;99.90;;;;;;4395682;32;20571;-64
2024/03/14 06:45:43;;;;;;;1.15;1.05;;;10.50;99.90;;;;;;4405579;32;20077;-65
2024/03/14 06:48:09;;;;;;;0.50;0.50;;;10.50;99.90;;;;;;4411439;32;20323;-65
2024/03/14 06:50:34;;;;;;;2.55;1.05;;;10.50;99.90;;;;;;4418523;32;20061;-64
2024/03/14 06:53:00;;;;;;;1.75;1.15;;;10.60;99.90;;;;;;4426831;32;20544;-63
2024/03/14 06:55:25;;;;;;;3.60;1.42;;;10.50;99.90;;;;;;4431263;32;20180;-61
2024/03/14 06:57:53;;;;;;;5.30;1.23;;;10.50;99.90;;;;;;4423846;32;21047;-62
2024/03/14 07:00:22;;;;;;;1.50;1.08;;;10.60;99.90;;;;;;4416140;32;20089;-62
2024/03/14 07:02:49;;;;;;;3.60;1.10;;;10.70;99.90;;;;;;4415827;32;20222;-61
2024/03/14 07:05:15;;;;;;;1.17;0.75;;;10.70;99.90;;;;;;4412904;32;20077;-62
2024/03/14 07:07:44;;;;;;;3.65;1.30;;;10.70;99.90;;;;;;4409644;32;20283;-63
2024/03/14 07:10:13;;;;;;;7.15;1.90;;;10.60;99.90;;;;;;4416732;32;20594;-62
2024/03/14 07:12:41;;;;;;;1.27;0.77;;;10.70;99.90;;;;;;4404563;32;21276;-61
2024/03/14 07:15:07;;;;;;;6.53;1.37;;;10.70;99.90;;;;;;4413125;32;20091;-62
2024/03/14 07:17:34;;;;;;;2.95;1.45;;;10.80;99.90;;;;;;4419813;32;20084;-61
2024/03/14 07:20:05;;;;;;;0.88;0.88;;;10.80;99.90;;;;;;4414751;32;20093;-61
2024/03/14 07:22:31;;;;;;;1.60;1.37;;;10.80;99.90;;;;;;4412280;32;20621;-62
2024/03/14 07:25:01;;;;;;;18.70;1.20;;;10.80;99.90;;;;;;4418052;32;20266;-62
2024/03/14 07:27:27;;;;;;;0.70;0.70;;;10.80;99.90;;;;;;4410757;32;20080;-62
2024/03/14 07:29:53;;;;;;;2.22;1.08;;;10.90;99.90;;;;;;4415777;32;20549;-62
2024/03/14 07:32:19;;;;;;;3.28;1.20;;;10.90;99.90;;;;;;4419826;32;20904;-63
2024/03/14 07:34:44;;;;;;;2.35;0.82;;;10.90;99.90;;;;;;4422573;32;20081;-62
2024/03/14 07:37:13;;;;;;;3.08;1.60;;;10.90;99.90;;;;;;4411060;32;20084;-61
2024/03/14 07:39:39;;;;;;;7.45;1.20;;;10.80;99.90;;;;;;4418791;32;20784;-62
2024/03/14 07:42:05;;;;;;;2.10;0.98;;;10.90;99.90;;;;;;4415169;32;20108;-63
2024/03/14 07:44:31;;;;;;;2.80;1.37;;;10.90;99.90;;;;;;4415699;32;20108;-63
2024/03/14 07:46:58;;;;;;;5.32;1.08;;;10.90;99.90;;;;;;4423632;32;20080;-63
2024/03/14 07:49:26;;;;;;;0.82;0.82;;;10.90;99.90;;;;;;4421959;32;20222;-63
2024/03/14 07:51:52;;;;;;;1.98;1.37;;;10.90;99.90;;;;;;4416821;32;20414;-64
2024/03/14 07:54:18;;;;;;;3.70;1.80;;;11.00;99.90;;;;;;4425975;32;20105;-65
2024/03/14 07:56:46;;;;;;;0.62;0.62;;;11.00;99.90;;;;;;4418611;32;21231;-64
2024/03/14 07:59:12;;;;;;;1.75;1.00;;;11.00;99.90;;;;;;4423511;32;21556;-62
2024/03/14 08:01:37;;;;;;;1.58;0.95;;;11.00;99.90;;;;;;4419569;32;20493;-66
2024/03/14 08:04:04;;;;;;;1.20;1.10;;;11.10;99.90;;;;;;4410093;32;20199;-65
2024/03/14 08:06:31;;;;;;;1.15;0.80;;;11.10;99.90;;;;;;4413783;32;20592;-65
2024/03/14 08:09:00;;;;;;;1.65;0.90;;;11.10;99.90;;;;;;4414238;32;20097;-65
2024/03/14 08:11:27;;;;;;;5.45;1.60;;;11.10;99.90;;;;;;4412184;32;20113;-65
2024/03/14 08:13:58;;;;;;;1.65;0.60;;;11.10;99.90;;;;;;4410303;32;20147;-65
2024/03/14 08:16:24;;;;;;;0.52;0.52;;;11.10;99.90;;;;;;4397881;32;20311;-65
2024/03/14 08:18:51;;;;;;;0.73;0.73;;;11.10;99.90;;;;;;4405968;32;21226;-64
2024/03/14 08:21:16;;;;;;;1.75;0.77;;;11.20;99.90;;;;;;4400471;32;20401;-65
2024/03/14 08:23:44;;;;;;;1.87;0.75;;;11.20;99.90;;;;;;4410526;32;20163;-64
2024/03/14 08:26:10;;;;;;;1.98;0.98;;;11.30;99.90;;;;;;4403124;32;21041;-65
2024/03/14 08:28:38;;;;;;;1.80;1.40;;;11.40;99.90;;;;;;4405847;32;20108;-65
2024/03/14 08:31:06;;;;;;;7.12;0.90;;;11.60;99.90;;;;;;4410181;32;20118;-66
2024/03/14 08:33:35;;;;;;;0.90;0.77;;;11.60;99.90;;;;;;4404178;32;20848;-64
2024/03/14 08:36:02;;;;;;;3.85;1.23;;;11.50;99.90;;;;;;4404138;32;20713;-64
2024/03/14 08:38:29;;;;;;;0.98;0.90;;;11.50;99.90;;;;;;4408215;32;20088;-64
2024/03/14 08:40:57;;;;;;;1.75;1.30;;;11.50;99.90;;;;;;4407508;32;20579;-64
2024/03/14 08:43:23;;;;;;;0.82;0.80;;;11.60;99.90;;;;;;4418881;32;20800;-63
2024/03/14 08:45:55;;;;;;;3.62;1.55;;;11.50;99.90;;;;;;4428128;32;20095;-63
2024/03/14 08:48:22;;;;;;;2.47;1.33;;;11.60;99.90;;;;;;4423162;32;20499;-62
2024/03/14 08:50:48;;;;;;;2.05;1.27;;;11.70;99.90;;;;;;4415027;32;20595;-62
2024/03/14 08:53:15;;;;;;;0.65;0.52;;;11.80;99.90;;;;;;4409579;32;20089;-61
2024/03/14 08:55:50;;;;;;;1.40;1.05;;;11.90;99.90;;;;;;4417580;32;20088;-61
2024/03/14 08:58:18;;;;;;;0.73;0.73;;;12.00;99.90;;;;;;4412204;32;20105;-62
2024/03/14 09:00:44;;;;;;;1.65;1.12;;;12.00;99.90;;;;;;4421005;32;20154;-62
2024/03/14 09:03:12;;;;;;;2.65;1.67;;;12.10;99.90;;;;;;4414276;32;20096;-62
2024/03/14 09:05:37;;;;;;;0.82;0.82;;;12.10;99.90;;;;;;4417512;32;20773;-62
2024/03/14 09:08:04;;;;;;;2.20;1.20;;;12.10;99.90;;;;;;4418431;32;20147;-62
2024/03/14 09:10:33;;;;;;;3.65;1.00;;;12.10;99.90;;;;;;4421408;32;20185;-62
2024/03/14 09:12:59;;;;;;;2.05;1.02;;;12.10;99.90;;;;;;4407802;32;20619;-64
2024/03/14 09:15:27;;;;;;;1.50;1.10;;;12.00;99.90;;;;;;4403273;32;20100;-64
2024/03/14 09:17:55;;;;;;;15.20;1.95;;;12.00;99.90;;;;;;4413149;32;20101;-64
2024/03/14 09:20:21;;;;;;;6.37;2.00;;;12.00;99.90;;;;;;4402575;32;20238;-65
2024/03/14 09:22:55;;;;;;;2.15;1.20;;;12.20;99.90;;;;;;4409220;32;20789;-66
2024/03/14 09:25:23;;;;;;;0.93;0.93;;;12.20;99.90;;;;;;4399468;32;20310;-65
2024/03/14 09:27:48;;;;;;;2.42;1.30;;;12.30;99.90;;;;;;4388408;32;20894;-65
2024/03/14 09:30:14;;;;;;;4.20;0.82;;;12.40;99.90;;;;;;4409437;32;20444;-65
2024/03/14 09:32:41;;;;;;;2.10;1.05;;;12.40;99.90;;;;;;4406571;32;20431;-65
2024/03/14 09:35:11;;;;;;;2.83;1.35;;;12.50;99.90;;;;;;4402463;32;20207;-66
2024/03/14 09:37:37;;;;;;;0.50;0.50;;;12.60;99.90;;;;;;4404033;32;20783;-66
2024/03/14 09:40:05;;;;;;;1.12;1.02;;;12.80;99.90;;;;;;4402283;32;20384;-63
2024/03/14 09:42:32;;;;;;;2.22;1.08;;;12.90;99.90;;;;;;4408207;32;20720;-65
2024/03/14 09:45:01;;;;;;;1.25;1.10;;;12.90;99.90;;;;;;4410672;32;20154;-65
2024/03/14 09:47:37;;;;;;;0.73;0.65;;;12.90;99.90;;;;;;4402489;32;20442;-67
2024/03/14 09:50:05;;;;;;;1.30;0.77;;;13.10;99.90;;;;;;4419913;32;20093;-66
2024/03/14 09:52:33;;;;;;;1.65;1.05;;;13.20;99.90;;;;;;4414616;32;20760;-65
2024/03/14 09:55:00;;;;;;;1.08;0.68;;;13.20;99.90;;;;;;4416879;32;20093;-63
2024/03/14 09:57:26;;;;;;;0.73;0.70;;;13.30;99.90;;;;;;4421601;32;20112;-63
2024/03/14 09:59:55;;;;;;;1.23;1.05;;;13.40;99.90;;;;;;4427231;32;20532;-62
2024/03/14 10:02:27;;;;;;;0.88;0.85;;;13.40;99.90;;;;;;4421936;32;20211;-64
2024/03/14 10:04:53;;;;;;;8.20;0.95;;;13.30;99.90;;;;;;4415934;32;20864;-65
2024/03/14 10:07:20;;;;;;;7.15;1.20;;;13.20;99.90;;;;;;4419802;32;20838;-65
2024/03/14 10:09:45;;;;;;;1.77;1.20;;;13.20;99.90;;;;;;4428513;32;21293;-65
2024/03/14 10:12:12;;;;;;;1.20;1.00;;;13.30;99.90;;;;;;4427614;32;20081;-62
2024/03/14 10:14:40;;;;;;;1.45;1.02;;;13.40;99.90;;;;;;4425131;32;20536;-64
2024/03/14 10:17:07;;;;;;;1.23;0.80;;;13.40;99.90;;;;;;4423966;32;20143;-66
2024/03/14 10:19:35;;;;;;;0.75;0.75;;;13.60;99.90;;;;;;4425720;32;20104;-68
2024/03/14 10:22:03;;;;;;;0.88;0.88;;;13.70;99.90;;;;;;4414427;32;20196;-67
2024/03/14 10:24:30;;;;;;;4.80;1.27;;;13.70;99.90;;;;;;4406352;32;20257;-66
2024/03/14 10:26:56;;;;;;;1.60;0.88;;;13.70;99.90;;;;;;4404907;32;20606;-66
2024/03/14 10:29:23;;;;;;;0.80;0.73;;;13.80;99.90;;;;;;4406744;32;20275;-67
2024/03/14 10:31:49;;;;;;;1.12;0.75;;;13.70;99.90;;;;;;4384348;32;20611;-66
2024/03/14 10:34:15;;;;;;;1.90;1.00;;;13.80;99.90;;;;;;4400830;32;20100;-66
2024/03/14 10:36:41;;;;;;;0.50;0.50;;;13.80;99.90;;;;;;4403293;32;21409;-66
2024/03/14 10:39:14;;;;;;;8.63;0.82;;;13.80;99.90;;;;;;4395670;32;20122;-66
2024/03/14 10:41:47;;;;;;;1.67;0.80;;;13.80;99.90;;;;;;4400550;32;20072;-66
2024/03/14 10:44:15;;;;;;;0.60;0.60;;;13.90;99.90;;;;;;4404451;32;20623;-66
2024/03/14 10:46:42;;;;;;;3.12;0.80;;;13.90;99.90;;;;;;4402977;32;21365;-67
2024/03/14 10:49:11;;;;;;;2.95;1.40;;;13.90;99.90;;;;;;4406969;32;20698;-66
2024/03/14 10:51:39;;;;;;;0.60;0.60;;;13.90;99.90;;;;;;4406019;32;20093;-66
2024/03/14 10:54:08;;;;;;;1.87;1.02;;;14.00;99.90;;;;;;4404132;32;20181;-66
2024/03/14 10:56:36;;;;;;;0.70;0.70;;;14.00;99.90;;;;;;4411520;32;20223;-66
2024/03/14 10:59:04;;;;;;;2.67;1.02;;;14.20;99.90;;;;;;4405670;32;21399;-65
2024/03/14 11:01:30;;;;;;;1.12;0.60;;;14.30;99.90;;;;;;4409275;32;20077;-66
2024/03/14 11:03:57;;;;;;;0.93;0.90;;;14.40;99.90;;;;;;4410290;32;20774;-69
2024/03/14 11:06:27;;;;;;;3.83;0.70;;;14.40;99.90;;;;;;4417675;32;20084;-67
2024/03/14 11:08:54;;;;;;;1.08;0.73;;;14.40;99.90;;;;;;4414382;32;20376;-64
2024/03/14 11:11:22;;;;;;;2.55;1.15;;;14.50;99.90;;;;;;4406951;32;20110;-65
2024/03/14 11:13:50;;;;;;;4.40;0.80;;;14.50;99.90;;;;;;4398031;32;20536;-67
2024/03/14 11:16:18;;;;;;;1.62;1.05;;;14.40;99.90;;;;;;4404410;32;20191;-67
2024/03/14 11:18:53;;;;;;;0.73;0.65;;;14.60;99.90;;;;;;4421971;32;20138;-67
2024/03/14 11:21:23;;;;;;;1.17;0.65;;;14.70;99.90;;;;;;4421524;32;20096;-66
2024/03/14 11:23:49;;;;;;;0.55;0.55;;;14.80;99.90;;;;;;4420787;32;20112;-66
2024/03/14 11:26:18;;;;;;;1.37;1.10;;;15.10;99.90;;;;;;4421309;32;20737;-66
2024/03/14 11:28:45;;;;;;;1.37;1.02;;;15.30;99.90;;;;;;4426107;32;20088;-65
2024/03/14 11:31:11;;;;;;;6.32;0.75;;;15.50;99.90;;;;;;4414476;32;20109;-65
2024/03/14 11:33:38;;;;;;;0.70;0.70;;;15.50;99.90;;;;;;4425070;32;20117;-63
2024/03/14 11:36:06;;;;;;;4.47;1.70;;;15.60;99.90;;;;;;4426855;32;20596;-64
2024/03/14 11:38:33;;;;;;;1.65;1.00;;;15.70;99.90;;;;;;4430790;32;20190;-64
2024/03/14 11:41:02;;;;;;;0.80;0.62;;;15.60;99.90;;;;;;4431335;32;20100;-65
2024/03/14 11:43:33;;;;;;;0.40;0.40;;;15.50;99.90;;;;;;4428504;32;20301;-64
2024/03/14 11:46:02;;;;;;;0.50;0.50;;;15.50;99.90;;;;;;4428361;32;20996;-65
2024/03/14 11:48:28;;;;;;;0.50;0.50;;;15.60;99.90;;;;;;4422779;32;20435;-63
2024/03/14 11:50:56;;;;;;;0.40;0.40;;;16.00;99.90;;;;;;4425802;32;20860;-64
2024/03/14 11:53:22;;;;;;;0.75;0.75;;;16.60;99.90;;;;;;4423435;32;131266;-66
2024/03/14 11:55:48;;;;;;;6.62;0.95;;;17.00;99.90;;;;;;4419741;32;20093;-65
2024/03/14 11:58:16;;;;;;;2.50;0.60;;;17.40;99.90;;;;;;4426715;32;20093;-66
2024/03/14 12:00:47;;;;;;;0.65;0.65;;;17.60;99.90;;;;;;4426979;32;20429;-66
2024/03/14 12:03:15;;;;;;;0.68;0.57;;;17.80;99.90;;;;;;4430551;32;20699;-63
2024/03/14 12:05:42;;;;;;;0.47;0.47;;;18.40;99.90;;;;;;4434875;32;20160;-63
2024/03/14 12:08:11;;;;;;;0.80;0.80;;;18.60;99.90;;;;;;4425476;32;20069;-65
2024/03/14 12:10:38;;;;;;;0.57;0.57;;;18.00;99.90;;;;;;4432563;32;20077;-65
2024/03/14 12:13:04;;;;;;;2.00;0.62;;;17.20;99.90;;;;;;4435302;32;20785;-64
2024/03/14 12:15:30;;;;;;;0.68;0.65;;;17.20;99.90;;;;;;4432538;32;20069;-66
2024/03/14 12:17:56;;;;;;;0.93;0.88;;;17.00;99.90;;;;;;4432528;32;20069;-66
2024/03/14 12:20:24;;;;;;;0.77;0.77;;;16.70;99.90;;;;;;4434210;32;20080;-64
2024/03/14 12:22:54;;;;;;;0.60;0.60;;;16.50;99.90;;;;;;4427827;32;20158;-63
2024/03/14 12:25:20;;;;;;;0.80;0.80;;;16.10;99.90;;;;;;4434179;32;20101;-62
2024/03/14 12:27:48;;;;;;;0.50;0.50;;;16.10;99.90;;;;;;4432344;32;20088;-67
2024/03/14 12:30:16;;;;;;;1.60;0.95;;;15.90;99.90;;;;;;4434689;32;20093;-64
2024/03/14 12:32:43;;;;;;;0.80;0.80;;;15.90;99.90;;;;;;4432616;32;20434;-62
2024/03/14 12:35:13;;;;;;;1.75;0.80;;;16.00;99.90;;;;;;4435881;32;20084;-62
2024/03/14 12:37:42;;;;;;;0.90;0.77;;;15.90;99.90;;;;;;4432306;32;20149;-64
2024/03/14 12:40:11;;;;;;;0.65;0.65;;;15.90;99.90;;;;;;4435512;32;20482;-65
2024/03/14 12:42:38;;;;;;;2.40;0.93;;;15.80;99.90;;;;;;4426356;32;20072;-65
2024/03/14 12:45:05;;;;;;;0.70;0.70;;;15.80;99.90;;;;;;4428267;32;20104;-65
2024/03/14 12:47:33;;;;;;;0.60;0.60;;;15.80;99.90;;;;;;4427697;32;20076;-63
2024/03/14 12:50:00;;;;;;;1.92;0.80;;;15.90;99.90;;;;;;4435091;32;20081;-64
2024/03/14 12:52:28;;;;;;;0.50;0.50;;;15.90;99.90;;;;;;4434438;32;20119;-64